createdAt,value
2023-03-02T00:02:20.458Z,0.30
2023-03-02T00:05:15.777Z,0.13
2023-03-02T00:08:11.267Z,0.20
2023-03-02T00:11:06.794Z,0.20
2023-03-02T00:14:02.637Z,0.20
2023-03-02T00:16:57.927Z,0.45
2023-03-02T00:19:54.636Z,0.20
2023-03-02T00:22:50.575Z,0.22
2023-03-02T00:25:44.861Z,0.25
2023-03-02T00:28:40.719Z,0.50
2023-03-02T00:31:36.435Z,0.28
2023-03-02T00:34:34.298Z,0.50
2023-03-02T00:37:29.190Z,0.40
2023-03-02T00:40:23.700Z,0.30
2023-03-02T00:43:18.792Z,0.25
2023-03-02T00:46:22.469Z,0.20
2023-03-02T00:49:16.845Z,0.22
2023-03-02T00:52:11.167Z,0.25
2023-03-02T00:55:05.730Z,0.32
2023-03-02T00:57:59.990Z,0.20
2023-03-02T01:00:54.337Z,0.40
2023-03-02T01:03:49.016Z,0.50
2023-03-02T01:06:48.406Z,0.25
2023-03-02T01:09:45.122Z,0.20
2023-03-02T01:12:39.645Z,0.30
2023-03-02T01:15:35.032Z,0.30
2023-03-02T01:18:29.258Z,0.20
2023-03-02T01:21:23.524Z,0.30
2023-03-02T01:24:17.881Z,0.15
2023-03-02T01:27:12.440Z,0.20
2023-03-02T01:30:07.260Z,0.20
2023-03-02T01:33:01.548Z,0.20
2023-03-02T01:35:55.894Z,0.40
2023-03-02T01:38:50.408Z,0.38
2023-03-02T01:41:48.227Z,0.40
2023-03-02T01:44:55.480Z,0.30
2023-03-02T01:47:49.765Z,0.30
2023-03-02T01:50:44.344Z,0.40
2023-03-02T01:53:39.223Z,0.20
2023-03-02T01:56:37.682Z,0.40
2023-03-02T01:59:34.751Z,0.20
2023-03-02T02:02:29.244Z,0.35
2023-03-02T02:05:28.095Z,0.40
2023-03-02T02:08:22.634Z,0.20
2023-03-02T02:11:17.039Z,0.17
2023-03-02T02:14:11.616Z,0.30
2023-03-02T02:17:05.907Z,0.30
2023-03-02T02:20:27.989Z,0.20
2023-03-02T02:23:28.754Z,0.20
2023-03-02T02:26:33.335Z,0.40
2023-03-02T02:29:34.768Z,0.40
2023-03-02T02:32:36.177Z,0.40
2023-03-02T02:35:32.385Z,0.30
2023-03-02T02:38:27.372Z,0.30
2023-03-02T02:41:29.083Z,0.28
2023-03-02T02:44:23.362Z,0.20
2023-03-02T02:47:20.960Z,0.30
2023-03-02T02:50:26.209Z,0.55
2023-03-02T02:53:30.380Z,0.32
2023-03-02T02:56:24.726Z,0.20
2023-03-02T02:59:20.780Z,0.30
2023-03-02T03:02:24.044Z,0.13
2023-03-02T03:05:18.851Z,0.38
2023-03-02T03:08:47.829Z,0.20
2023-03-02T03:11:44.892Z,0.30
2023-03-02T03:14:42.521Z,0.30
2023-03-02T03:17:36.965Z,0.30
2023-03-02T03:20:31.722Z,0.30
2023-03-02T03:23:26.607Z,0.10
2023-03-02T03:26:21.820Z,0.30
2023-03-02T03:29:16.725Z,0.28
2023-03-02T03:32:12.376Z,0.45
2023-03-02T03:35:09.954Z,0.15
2023-03-02T03:38:04.407Z,0.52
2023-03-02T03:40:58.740Z,0.30
2023-03-02T03:43:53.936Z,0.30
2023-03-02T03:46:48.216Z,0.10
2023-03-02T03:49:42.435Z,0.13
2023-03-02T03:52:36.664Z,0.28
2023-03-02T03:55:31.427Z,0.40
2023-03-02T03:58:26.935Z,0.38
2023-03-02T04:01:21.360Z,0.25
2023-03-02T04:04:19.727Z,0.20
2023-03-02T04:07:15.266Z,0.40
2023-03-02T04:10:10.787Z,0.40
2023-03-02T04:13:05.835Z,0.50
2023-03-02T04:16:00.192Z,0.20
2023-03-02T04:18:54.573Z,0.20
2023-03-02T04:21:52.059Z,0.30
2023-03-02T04:24:46.409Z,0.30
2023-03-02T04:27:41.321Z,0.30
2023-03-02T04:30:35.709Z,0.40
2023-03-02T04:33:30.117Z,0.20
2023-03-02T04:36:24.337Z,0.30
2023-03-02T04:39:20.540Z,0.10
2023-03-02T04:42:14.824Z,0.28
2023-03-02T04:45:09.609Z,0.20
2023-03-02T04:48:03.912Z,0.17
2023-03-02T04:50:58.241Z,0.40
2023-03-02T04:53:57.923Z,0.30
2023-03-02T04:56:52.862Z,0.20
2023-03-02T04:59:47.308Z,0.60
2023-03-02T05:02:42.636Z,0.20
2023-03-02T05:05:37.020Z,0.20
2023-03-02T05:08:31.961Z,0.40
2023-03-02T05:11:26.246Z,0.20
2023-03-02T05:14:20.551Z,0.20
2023-03-02T05:17:15.510Z,0.10
2023-03-02T05:20:10.515Z,0.20
2023-03-02T05:23:10.329Z,0.20
2023-03-02T05:26:05.207Z,0.30
2023-03-02T05:28:59.592Z,0.20
2023-03-02T05:31:54.163Z,0.30
2023-03-02T05:34:48.647Z,0.20
2023-03-02T05:37:45.765Z,0.20
2023-03-02T05:43:37.356Z,0.30
2023-03-02T05:46:31.880Z,0.20
2023-03-02T05:49:26.306Z,0.40
2023-03-02T05:52:20.597Z,0.17
2023-03-02T05:55:15.820Z,0.13
2023-03-02T05:58:15.829Z,0.45
2023-03-02T06:01:15.143Z,0.30
2023-03-02T06:04:09.817Z,0.25
2023-03-02T06:07:04.007Z,0.32
2023-03-02T06:09:58.625Z,0.20
2023-03-02T06:12:53.292Z,0.40
2023-03-02T06:15:47.598Z,0.25
2023-03-02T06:18:41.910Z,0.40
2023-03-02T06:21:36.234Z,0.30
2023-03-02T06:24:30.777Z,0.25
2023-03-02T06:27:25.052Z,0.35
2023-03-02T06:30:21.372Z,0.17
2023-03-02T06:33:17.086Z,0.30
2023-03-02T06:36:13.766Z,0.10
2023-03-02T06:39:16.905Z,0.25
2023-03-02T06:42:11.109Z,0.40
2023-03-02T06:45:06.446Z,0.10
2023-03-02T06:48:02.807Z,0.40
2023-03-02T06:50:57.168Z,0.30
2023-03-02T06:53:51.635Z,0.30
2023-03-02T06:56:45.988Z,0.28
2023-03-02T06:59:40.295Z,0.20
2023-03-02T07:02:35.086Z,0.20
2023-03-02T07:05:33.353Z,0.20
2023-03-02T07:08:27.786Z,0.20
2023-03-02T07:11:22.104Z,0.20
2023-03-02T07:14:17.824Z,0.30
2023-03-02T07:17:13.119Z,0.30
2023-03-02T07:20:09.003Z,0.13
2023-03-02T07:23:03.332Z,0.47
2023-03-02T07:25:59.203Z,0.60
2023-03-02T07:28:53.898Z,0.50
2023-03-02T07:31:48.213Z,0.30
2023-03-02T07:34:42.633Z,0.20
2023-03-02T07:37:36.991Z,0.50
2023-03-02T07:40:33.336Z,0.40
2023-03-02T07:43:29.996Z,0.43
2023-03-02T07:46:24.358Z,0.40
2023-03-02T07:49:18.796Z,0.20
2023-03-02T07:52:14.021Z,0.20
2023-03-02T07:55:08.760Z,0.38
2023-03-02T07:58:03.064Z,0.60
2023-03-02T08:00:57.546Z,0.40
2023-03-02T08:03:51.810Z,0.40
2023-03-02T08:06:46.575Z,0.40
2023-03-02T08:09:42.162Z,0.50
2023-03-02T08:12:36.533Z,0.22
2023-03-02T08:15:30.769Z,0.50
2023-03-02T08:18:25.255Z,0.73
2023-03-02T08:21:21.971Z,0.60
2023-03-02T08:24:16.273Z,0.60
2023-03-02T08:27:14.581Z,0.40
2023-03-02T08:30:10.190Z,0.50
2023-03-02T08:33:06.943Z,0.40
2023-03-02T08:36:05.938Z,0.68
2023-03-02T08:39:00.218Z,0.28
2023-03-02T08:41:55.437Z,0.30
2023-03-02T08:44:49.802Z,0.40
2023-03-02T08:47:44.102Z,0.40
2023-03-02T08:50:38.449Z,0.40
2023-03-02T08:53:35.649Z,0.47
2023-03-02T08:59:25.506Z,0.50
2023-03-02T09:02:20.181Z,0.50
2023-03-02T09:05:16.717Z,0.50
2023-03-02T09:08:12.096Z,0.40
2023-03-02T09:11:06.557Z,0.32
2023-03-02T09:14:00.928Z,0.40
2023-03-02T09:16:55.834Z,0.52
2023-03-02T09:19:50.252Z,0.30
2023-03-02T09:22:49.773Z,0.50
2023-03-02T09:25:46.191Z,0.40
2023-03-02T09:28:41.111Z,0.50
2023-03-02T09:31:36.558Z,0.95
2023-03-02T09:34:31.420Z,0.40
2023-03-02T09:37:25.717Z,0.35
2023-03-02T09:40:27.061Z,0.35
2023-03-02T09:43:55.260Z,0.30
2023-03-02T09:47:01.379Z,0.30
2023-03-02T09:49:58.626Z,0.40
2023-03-02T09:53:11.209Z,0.30
2023-03-02T09:56:06.043Z,0.50
2023-03-02T09:59:32.442Z,0.50
2023-03-02T10:02:33.595Z,0.40
2023-03-02T10:05:42.155Z,0.40
2023-03-02T10:08:39.112Z,0.50
2023-03-02T10:11:51.820Z,0.50
2023-03-02T10:15:00.359Z,0.77
2023-03-02T10:18:22.947Z,0.35
2023-03-02T10:21:43.401Z,0.40
2023-03-02T10:24:41.194Z,0.30
2023-03-02T10:27:45.437Z,0.30
2023-03-02T10:30:40.809Z,0.63
2023-03-02T10:33:37.569Z,0.43
2023-03-02T10:36:41.181Z,0.68
2023-03-02T10:39:35.490Z,0.20
2023-03-02T10:42:38.718Z,0.30
2023-03-02T10:45:34.572Z,0.15
2023-03-02T10:48:28.996Z,0.40
2023-03-02T10:51:39.078Z,0.40
2023-03-02T10:54:36.533Z,0.60
2023-03-02T10:57:43.575Z,0.40
2023-03-02T11:00:38.212Z,0.60
2023-03-02T11:03:34.014Z,0.30
2023-03-02T11:06:29.233Z,0.35
2023-03-02T11:09:23.805Z,0.50
2023-03-02T11:12:19.620Z,0.38
2023-03-02T11:15:43.831Z,0.28
2023-03-02T11:18:48.656Z,0.47
2023-03-02T11:22:07.410Z,0.30
2023-03-02T11:25:03.988Z,0.30
2023-03-02T11:28:34.145Z,0.20
2023-03-02T11:31:50.150Z,0.30
2023-03-02T11:34:59.603Z,0.40
2023-03-02T11:37:56.448Z,0.20
2023-03-02T11:41:06.282Z,0.25
2023-03-02T11:44:17.841Z,0.30
2023-03-02T11:47:13.674Z,0.32
2023-03-02T11:50:12.246Z,0.40
2023-03-02T11:53:13.232Z,0.70
2023-03-02T11:56:08.361Z,0.40
2023-03-02T11:59:28.518Z,0.20
2023-03-02T12:02:23.728Z,0.43
2023-03-02T12:05:31.120Z,0.50
2023-03-02T12:08:25.488Z,0.30
2023-03-02T12:11:19.707Z,0.60
2023-03-02T12:14:46.395Z,0.40
2023-03-02T12:17:40.954Z,0.45
2023-03-02T12:20:35.269Z,0.38
2023-03-02T12:23:31.288Z,0.45
2023-03-02T12:26:38.431Z,0.30
2023-03-02T12:29:58.786Z,0.47
2023-03-02T12:33:28.547Z,0.30
2023-03-02T12:36:34.314Z,0.30
2023-03-02T12:39:46.592Z,0.52
2023-03-02T12:42:49.530Z,0.38
2023-03-02T12:46:20.828Z,0.30
2023-03-02T12:49:33.721Z,0.20
2023-03-02T12:52:38.889Z,0.30
2023-03-02T12:55:33.805Z,0.30
2023-03-02T12:58:30.681Z,0.30
2023-03-02T13:01:30.694Z,0.20
2023-03-02T13:04:29.174Z,0.40
2023-03-02T13:07:51.682Z,0.30
2023-03-02T13:10:55.045Z,0.28
2023-03-02T13:13:49.916Z,0.63
2023-03-02T13:16:44.504Z,0.43
2023-03-02T13:19:39.387Z,0.30
2023-03-02T13:22:34.142Z,0.30
2023-03-02T13:25:31.943Z,0.32
2023-03-02T13:28:33.684Z,0.20
2023-03-02T13:31:28.128Z,0.35
2023-03-02T13:34:33.960Z,0.30
2023-03-02T13:37:44.954Z,0.30
2023-03-02T13:40:46.009Z,0.70
2023-03-02T13:43:43.217Z,0.47
2023-03-02T13:46:39.314Z,0.30
2023-03-02T13:49:37.132Z,0.40
2023-03-02T13:52:36.543Z,0.30
2023-03-02T13:55:31.288Z,0.38
2023-03-02T13:58:26.944Z,0.20
2023-03-02T14:01:21.304Z,0.30
2023-03-02T14:04:18.862Z,0.50
2023-03-02T14:07:13.166Z,0.32
2023-03-02T14:10:07.666Z,0.45
2023-03-02T14:13:11.143Z,0.47
2023-03-02T14:16:05.896Z,0.40
2023-03-02T14:19:03.240Z,0.60
2023-03-02T14:24:51.857Z,0.50
2023-03-02T14:27:48.425Z,0.40
2023-03-02T14:30:45.714Z,0.30
2023-03-02T14:33:40.145Z,0.75
2023-03-02T14:36:37.594Z,0.35
2023-03-02T14:39:44.113Z,0.60
2023-03-02T14:42:38.340Z,0.30
2023-03-02T14:45:32.876Z,0.28
2023-03-02T14:48:27.107Z,0.40
2023-03-02T14:51:27.578Z,0.20
2023-03-02T14:54:22.427Z,0.30
2023-03-02T14:57:28.979Z,0.82
2023-03-02T15:00:23.799Z,0.32
2023-03-02T15:03:28.951Z,0.30
2023-03-02T15:06:26.245Z,0.30
2023-03-02T15:09:21.353Z,0.30
2023-03-02T15:12:16.378Z,0.40
2023-03-02T15:15:11.478Z,0.50
2023-03-02T15:18:06.317Z,0.50
2023-03-02T15:21:01.359Z,0.45
2023-03-02T15:23:55.729Z,0.47
2023-03-02T15:26:54.465Z,0.20
2023-03-02T15:29:49.472Z,0.50
2023-03-02T15:32:43.797Z,0.50
2023-03-02T15:35:42.109Z,0.20
2023-03-02T15:38:37.849Z,0.55
2023-03-02T15:41:32.403Z,0.60
2023-03-02T15:44:27.005Z,0.40
2023-03-02T15:47:21.349Z,0.77
2023-03-02T15:50:15.850Z,0.43
2023-03-02T15:53:10.520Z,0.40
2023-03-02T15:56:09.071Z,0.82
2023-03-02T15:59:03.325Z,0.30
2023-03-02T16:02:03.285Z,0.47
2023-03-02T16:04:57.566Z,0.20
2023-03-02T16:07:52.094Z,0.28
2023-03-02T16:10:46.411Z,0.43
2023-03-02T16:13:40.833Z,0.40
2023-03-02T16:16:35.303Z,0.50
2023-03-02T16:19:29.716Z,0.40
2023-03-02T16:22:23.961Z,1.08
2023-03-02T16:25:18.398Z,0.40
2023-03-02T16:28:13.502Z,0.73
2023-03-02T16:31:10.324Z,0.32
2023-03-02T16:34:08.579Z,0.20
2023-03-02T16:37:02.965Z,0.35
2023-03-02T16:39:57.211Z,0.63
2023-03-02T16:42:54.603Z,0.35
2023-03-02T16:45:50.562Z,0.35
2023-03-02T16:48:45.630Z,0.45
2023-03-02T16:51:40.580Z,0.30
2023-03-02T16:54:35.028Z,0.38
2023-03-02T16:57:29.293Z,0.40
2023-03-02T17:00:24.785Z,0.40
2023-03-02T17:03:19.534Z,0.47
2023-03-02T17:06:15.888Z,0.47
2023-03-02T17:09:11.342Z,0.30
2023-03-02T17:15:01.302Z,0.30
2023-03-02T17:17:55.631Z,0.40
2023-03-02T17:20:53.852Z,0.43
2023-03-02T17:23:49.462Z,0.35
2023-03-02T17:26:43.655Z,0.60
2023-03-02T17:29:37.937Z,0.35
2023-03-02T17:32:32.158Z,0.60
2023-03-02T17:35:26.522Z,0.57
2023-03-02T17:38:20.864Z,0.55
2023-03-02T17:41:15.280Z,0.40
2023-03-02T17:44:09.436Z,0.30
2023-03-02T17:47:07.929Z,0.30
2023-03-02T17:50:02.624Z,0.50
2023-03-02T17:52:56.984Z,0.60
2023-03-02T17:55:51.223Z,0.65
2023-03-02T17:58:45.606Z,0.30
2023-03-02T18:01:39.959Z,0.38
2023-03-02T18:04:34.234Z,0.50
2023-03-02T18:07:28.710Z,0.20
2023-03-02T18:10:23.064Z,0.47
2023-03-02T18:13:17.754Z,0.50
2023-03-02T18:16:12.288Z,0.30
2023-03-02T18:19:06.710Z,0.50
2023-03-02T18:22:01.104Z,0.50
2023-03-02T18:24:55.401Z,0.30
2023-03-02T18:27:49.747Z,0.55
2023-03-02T18:30:44.601Z,0.55
2023-03-02T18:33:39.073Z,0.82
2023-03-02T18:36:33.436Z,0.40
2023-03-02T18:39:27.786Z,0.55
2023-03-02T18:42:22.141Z,0.40
2023-03-02T18:45:35.689Z,0.38
2023-03-02T18:48:30.596Z,0.20
2023-03-02T18:51:26.272Z,0.50
2023-03-02T18:54:20.522Z,0.40
2023-03-02T18:57:15.581Z,0.30
2023-03-02T19:00:12.041Z,0.68
2023-03-02T19:03:06.381Z,0.30
2023-03-02T19:06:00.802Z,0.30
2023-03-02T19:08:55.191Z,0.30
2023-03-02T19:11:49.693Z,0.20
2023-03-02T19:14:44.051Z,0.22
2023-03-02T19:17:43.805Z,0.73
2023-03-02T19:20:38.179Z,0.57
2023-03-02T19:23:32.873Z,0.40
2023-03-02T19:26:27.162Z,0.38
2023-03-02T19:29:23.381Z,0.30
2023-03-02T19:32:17.750Z,0.38
2023-03-02T19:35:16.027Z,0.30
2023-03-02T19:38:10.952Z,0.35
2023-03-02T19:41:05.597Z,0.30
2023-03-02T19:44:00.385Z,0.47
2023-03-02T19:46:54.737Z,0.40
2023-03-02T19:49:48.977Z,0.30
2023-03-02T19:52:43.327Z,0.50
2023-03-02T19:55:38.250Z,0.45
2023-03-02T19:58:34.418Z,0.25
2023-03-02T20:01:31.249Z,0.40
2023-03-02T20:04:25.614Z,0.60
2023-03-02T20:07:20.686Z,0.35
2023-03-02T20:10:33.816Z,0.40
2023-03-02T20:13:28.058Z,0.38
2023-03-02T20:16:24.089Z,0.63
2023-03-02T20:19:20.601Z,0.50
2023-03-02T20:22:15.381Z,0.67
2023-03-02T20:25:10.643Z,0.40
2023-03-02T20:28:06.817Z,0.50
2023-03-02T20:31:04.378Z,0.40
2023-03-02T20:34:00.347Z,0.60
2023-03-02T20:36:54.789Z,0.45
2023-03-02T20:39:50.784Z,0.60
2023-03-02T20:42:46.132Z,0.77
2023-03-02T20:45:41.776Z,0.75
2023-03-02T20:48:36.593Z,1.08
2023-03-02T20:51:31.885Z,1.10
2023-03-02T20:54:33.192Z,0.80
2023-03-02T20:57:27.524Z,0.90
2023-03-02T21:00:26.592Z,0.80
2023-03-02T21:03:20.895Z,1.20
2023-03-02T21:06:17.632Z,0.90
2023-03-02T21:09:12.456Z,1.17
2023-03-02T21:12:09.671Z,1.20
2023-03-02T21:15:04.320Z,1.02
2023-03-02T21:18:00.536Z,1.02
2023-03-02T21:20:54.822Z,1.17
2023-03-02T21:23:49.295Z,0.95
2023-03-02T21:26:45.603Z,1.08
2023-03-02T21:29:40.098Z,0.80
2023-03-02T21:32:35.023Z,1.02
2023-03-02T21:35:29.487Z,1.23
2023-03-02T21:38:23.812Z,1.00
2023-03-02T21:41:20.083Z,0.98
2023-03-02T21:44:14.961Z,1.15
2023-03-02T21:47:09.640Z,1.02
2023-03-02T21:50:06.785Z,1.10
2023-03-02T21:53:02.278Z,1.00
2023-03-02T21:55:56.706Z,0.88
2023-03-02T21:58:56.829Z,0.80
2023-03-02T22:01:51.488Z,0.90
2023-03-02T22:04:45.954Z,0.60
2023-03-02T22:07:40.321Z,0.65
2023-03-02T22:10:49.930Z,0.77
2023-03-02T22:13:44.199Z,0.73
2023-03-02T22:16:41.715Z,0.88
2023-03-02T22:19:35.944Z,0.60
2023-03-02T22:22:33.571Z,0.50
2023-03-02T22:25:28.338Z,0.57
2023-03-02T22:28:28.518Z,0.60
2023-03-02T22:31:24.218Z,0.55
2023-03-02T22:34:24.565Z,0.40
2023-03-02T22:37:24.955Z,0.50
2023-03-02T22:40:31.514Z,0.52
2023-03-02T22:43:32.874Z,1.40
2023-03-02T22:46:28.144Z,0.32
2023-03-02T22:49:22.350Z,0.30
2023-03-02T22:52:25.059Z,0.30
2023-03-02T22:55:45.536Z,0.40
2023-03-02T22:58:51.435Z,0.40
2023-03-02T23:01:47.380Z,0.35
2023-03-02T23:04:41.888Z,0.32
2023-03-02T23:07:36.072Z,0.30
2023-03-02T23:10:30.424Z,0.30
2023-03-02T23:13:27.457Z,0.30
2023-03-02T23:19:17.750Z,0.30
2023-03-02T23:22:12.576Z,0.52
2023-03-02T23:25:08.587Z,0.50
2023-03-02T23:28:03.058Z,0.40
2023-03-02T23:30:57.338Z,0.60
2023-03-02T23:33:51.791Z,0.50
2023-03-02T23:36:46.060Z,0.40
2023-03-02T23:39:40.390Z,0.40
2023-03-02T23:42:34.761Z,0.40
2023-03-02T23:45:29.094Z,0.50
2023-03-02T23:48:23.516Z,0.73
2023-03-02T23:51:18.019Z,0.68
2023-03-02T23:54:12.554Z,0.60
2023-03-02T23:57:06.998Z,0.57
